createdAt,value
2017-11-16T00:00:27.687Z,3.23
2017-11-16T00:02:55.930Z,3.13
2017-11-16T00:05:23.367Z,3.50
2017-11-16T00:07:50.830Z,2.30
2017-11-16T00:10:18.287Z,1.70
2017-11-16T00:12:45.726Z,3.60
2017-11-16T00:15:13.155Z,1.90
2017-11-16T00:17:40.571Z,2.43
2017-11-16T00:20:08.030Z,3.63
2017-11-16T00:22:35.547Z,2.70
2017-11-16T00:25:03.778Z,2.70
2017-11-16T00:27:31.198Z,2.60
2017-11-16T00:29:59.386Z,2.03
2017-11-16T00:32:26.802Z,2.10
2017-11-16T00:34:54.231Z,4.30
2017-11-16T00:37:21.650Z,3.40
2017-11-16T00:39:49.842Z,3.87
2017-11-16T00:42:17.264Z,2.70
2017-11-16T00:44:44.701Z,2.73
2017-11-16T00:47:12.107Z,2.73
2017-11-16T00:49:40.303Z,1.87
2017-11-16T00:52:08.489Z,1.93
2017-11-16T00:54:35.966Z,2.70
2017-11-16T00:57:03.430Z,2.67
2017-11-16T00:59:30.854Z,2.43
2017-11-16T01:01:59.070Z,3.30
2017-11-16T01:04:26.495Z,2.47
2017-11-16T01:06:54.679Z,2.33
2017-11-16T01:09:22.104Z,3.00
2017-11-16T01:11:49.530Z,2.33
2017-11-16T01:14:16.957Z,2.10
2017-11-16T01:16:45.142Z,2.00
2017-11-16T01:19:12.626Z,2.60
2017-11-16T01:21:40.043Z,1.47
2017-11-16T01:24:08.283Z,3.17
2017-11-16T01:26:35.726Z,1.50
2017-11-16T01:29:03.163Z,3.70
2017-11-16T01:31:30.595Z,2.00
2017-11-16T01:33:58.830Z,3.60
2017-11-16T01:36:26.302Z,2.47
2017-11-16T01:38:53.744Z,1.43
2017-11-16T01:41:21.224Z,2.27
2017-11-16T01:43:48.647Z,2.23
2017-11-16T01:46:16.139Z,2.40
2017-11-16T01:48:43.601Z,2.33
2017-11-16T01:51:11.054Z,1.97
2017-11-16T01:53:38.495Z,2.10
2017-11-16T01:56:05.978Z,2.77
2017-11-16T01:58:33.442Z,1.90
2017-11-16T02:01:00.899Z,1.90
2017-11-16T02:03:28.319Z,1.30
2017-11-16T02:05:56.545Z,2.33
2017-11-16T02:08:23.970Z,3.23
2017-11-16T02:10:52.174Z,2.37
2017-11-16T02:13:19.642Z,2.07
2017-11-16T02:15:47.066Z,1.30
2017-11-16T02:18:15.254Z,1.70
2017-11-16T02:20:42.738Z,2.00
2017-11-16T02:23:10.203Z,1.63
2017-11-16T02:25:37.652Z,1.70
2017-11-16T02:28:05.070Z,1.80
2017-11-16T02:30:32.547Z,1.20
2017-11-16T02:33:00.723Z,1.70
2017-11-16T02:35:28.919Z,2.30
2017-11-16T02:37:56.403Z,1.87
2017-11-16T02:40:23.830Z,1.70
2017-11-16T02:42:52.015Z,1.67
2017-11-16T02:45:19.502Z,1.67
2017-11-16T02:47:46.920Z,1.40
2017-11-16T02:50:15.144Z,1.63
2017-11-16T02:52:42.603Z,2.90
2017-11-16T02:55:10.026Z,2.07
2017-11-16T02:57:38.215Z,1.60
2017-11-16T03:00:05.639Z,1.73
2017-11-16T03:02:33.175Z,1.67
2017-11-16T03:05:00.594Z,1.33
2017-11-16T03:07:28.778Z,1.73
2017-11-16T03:09:56.195Z,2.67
2017-11-16T03:12:23.622Z,1.03
2017-11-16T03:14:51.107Z,2.10
2017-11-16T03:17:18.651Z,1.47
2017-11-16T03:19:46.070Z,1.83
2017-11-16T03:22:14.302Z,1.27
2017-11-16T03:24:41.719Z,1.77
2017-11-16T03:27:09.213Z,1.87
2017-11-16T03:29:36.627Z,2.07
2017-11-16T03:32:04.818Z,1.43
2017-11-16T03:34:32.318Z,1.47
2017-11-16T03:36:59.766Z,1.80
2017-11-16T03:39:27.183Z,1.73
2017-11-16T03:41:55.371Z,1.40
2017-11-16T03:44:23.555Z,2.50
2017-11-16T03:46:51.743Z,1.07
2017-11-16T03:49:19.159Z,1.70
2017-11-16T03:51:46.683Z,1.47
2017-11-16T03:54:14.103Z,2.93
2017-11-16T03:56:42.322Z,1.70
2017-11-16T03:59:09.739Z,1.60
2017-11-16T04:01:37.962Z,1.70
2017-11-16T04:04:05.378Z,2.57
2017-11-16T04:06:33.602Z,1.30
2017-11-16T04:09:01.062Z,2.23
2017-11-16T04:11:28.483Z,1.53
2017-11-16T04:13:56.702Z,1.60
2017-11-16T04:16:24.128Z,1.53
2017-11-16T04:18:52.311Z,2.47
2017-11-16T04:21:20.503Z,2.10
2017-11-16T04:23:47.920Z,1.70
2017-11-16T04:26:15.346Z,2.13
2017-11-16T04:28:42.801Z,0.90
2017-11-16T04:31:10.260Z,1.30
2017-11-16T04:33:37.678Z,1.40
2017-11-16T04:36:05.899Z,1.20
2017-11-16T04:38:33.315Z,0.97
2017-11-16T04:41:01.640Z,1.90
2017-11-16T04:43:29.105Z,1.83
2017-11-16T04:45:56.562Z,1.13
2017-11-16T04:48:23.979Z,2.13
2017-11-16T04:50:52.173Z,1.80
2017-11-16T04:53:19.662Z,1.07
2017-11-16T04:55:47.102Z,2.10
2017-11-16T04:58:15.278Z,1.40
2017-11-16T05:00:42.702Z,1.47
2017-11-16T05:03:10.118Z,1.00
2017-11-16T05:05:37.562Z,2.00
2017-11-16T05:08:04.985Z,1.00
2017-11-16T05:10:33.166Z,1.10
2017-11-16T05:13:00.689Z,1.63
2017-11-16T05:15:28.102Z,1.50
2017-11-16T05:17:56.294Z,1.70
2017-11-16T05:20:23.714Z,1.50
2017-11-16T05:22:51.243Z,1.37
2017-11-16T05:25:18.657Z,1.63
2017-11-16T05:27:46.887Z,1.20
2017-11-16T05:30:14.347Z,1.77
2017-11-16T05:32:41.809Z,2.40
2017-11-16T05:35:09.235Z,2.87
2017-11-16T05:37:37.448Z,1.53
2017-11-16T05:40:04.863Z,2.20
2017-11-16T05:42:33.082Z,1.20
2017-11-16T05:45:00.518Z,2.20
2017-11-16T05:47:28.726Z,1.40
2017-11-16T05:49:56.142Z,2.10
2017-11-16T05:52:24.363Z,2.23
2017-11-16T05:54:51.783Z,0.90
2017-11-16T05:57:19.999Z,0.90
2017-11-16T05:59:47.419Z,2.57
2017-11-16T06:02:15.642Z,2.23
2017-11-16T06:04:43.083Z,1.70
2017-11-16T06:07:11.258Z,2.10
2017-11-16T06:09:38.751Z,2.97
2017-11-16T06:12:06.694Z,1.10
2017-11-16T06:14:34.179Z,2.33
2017-11-16T06:17:01.600Z,2.10
2017-11-16T06:19:29.790Z,1.53
2017-11-16T06:21:57.282Z,2.93
2017-11-16T06:24:24.738Z,1.60
2017-11-16T06:26:52.215Z,2.40
2017-11-16T06:29:19.637Z,2.60
2017-11-16T06:31:47.118Z,3.10
2017-11-16T06:34:14.587Z,1.90
2017-11-16T06:36:42.007Z,2.07
2017-11-16T06:39:10.201Z,2.43
2017-11-16T06:41:37.688Z,1.37
2017-11-16T06:44:05.108Z,2.40
2017-11-16T06:46:33.290Z,2.53
2017-11-16T06:49:00.781Z,2.60
2017-11-16T06:51:28.363Z,2.83
2017-11-16T06:53:55.770Z,3.10
2017-11-16T06:56:23.960Z,3.17
2017-11-16T06:58:51.442Z,3.07
2017-11-16T07:01:18.863Z,2.37
2017-11-16T07:03:47.082Z,2.80
2017-11-16T07:06:14.529Z,2.90
2017-11-16T07:08:42.019Z,2.57
2017-11-16T07:11:09.571Z,2.20
2017-11-16T07:13:36.995Z,2.30
2017-11-16T07:16:05.217Z,2.20
2017-11-16T07:18:32.666Z,1.07
2017-11-16T07:21:00.093Z,2.50
2017-11-16T07:23:28.279Z,2.10
2017-11-16T07:25:55.860Z,3.07
2017-11-16T07:28:23.337Z,1.80
2017-11-16T07:30:50.799Z,2.90
2017-11-16T07:33:18.254Z,3.27
2017-11-16T07:35:45.715Z,2.77
2017-11-16T07:38:13.158Z,2.30
2017-11-16T07:40:46.344Z,2.30
2017-11-16T07:43:13.840Z,4.83
2017-11-16T07:45:41.299Z,1.80
2017-11-16T07:48:08.755Z,2.90
2017-11-16T07:50:36.190Z,3.60
2017-11-16T07:53:03.683Z,2.80
2017-11-16T07:55:32.946Z,2.67
2017-11-16T07:58:00.367Z,2.17
2017-11-16T08:00:27.976Z,2.97
2017-11-16T08:02:56.307Z,2.00
2017-11-16T08:05:23.714Z,2.07
2017-11-16T08:07:51.139Z,3.20
2017-11-16T08:10:18.555Z,2.47
2017-11-16T08:12:46.027Z,3.30
2017-11-16T08:15:13.495Z,3.70
2017-11-16T08:17:40.994Z,2.70
2017-11-16T08:20:08.403Z,3.67
2017-11-16T08:22:35.827Z,1.73
2017-11-16T08:25:04.015Z,2.60
2017-11-16T08:27:32.227Z,2.40
2017-11-16T08:29:59.662Z,2.80
2017-11-16T08:32:28.379Z,2.50
2017-11-16T08:34:55.843Z,3.57
2017-11-16T08:37:23.303Z,3.70
2017-11-16T08:39:50.768Z,3.00
2017-11-16T08:42:18.236Z,2.50
2017-11-16T08:44:45.646Z,2.67
2017-11-16T08:47:13.838Z,3.37
2017-11-16T08:49:41.254Z,3.83
2017-11-16T08:52:08.682Z,3.73
2017-11-16T08:54:36.204Z,4.03
2017-11-16T08:57:04.849Z,4.90
2017-11-16T08:59:32.627Z,4.10
2017-11-16T09:02:00.177Z,4.20
2017-11-16T09:04:27.730Z,3.07
2017-11-16T09:06:55.231Z,4.07
2017-11-16T09:09:22.654Z,2.93
2017-11-16T09:11:50.141Z,3.93
2017-11-16T09:14:18.455Z,4.67
2017-11-16T09:16:45.959Z,7.10
2017-11-16T09:19:13.418Z,3.63
2017-11-16T09:21:40.886Z,3.07
2017-11-16T09:24:08.314Z,5.70
2017-11-16T09:26:35.798Z,3.20
2017-11-16T09:29:03.275Z,3.33
2017-11-16T09:31:30.723Z,3.10
2017-11-16T09:33:58.154Z,3.40
2017-11-16T09:36:26.458Z,3.53
2017-11-16T09:38:53.927Z,3.50
2017-11-16T09:41:21.346Z,4.40
2017-11-16T09:43:49.581Z,4.90
2017-11-16T09:46:16.995Z,3.93
2017-11-16T09:48:44.431Z,3.63
2017-11-16T09:51:12.042Z,3.83
2017-11-16T09:53:39.447Z,2.47
2017-11-16T09:56:06.867Z,3.97
2017-11-16T09:58:34.300Z,3.67
2017-11-16T10:01:02.516Z,5.57
2017-11-16T10:03:29.946Z,3.50
2017-11-16T10:05:57.367Z,3.60
2017-11-16T10:08:24.814Z,3.50
2017-11-16T10:10:52.259Z,5.77
2017-11-16T10:13:19.687Z,3.57
2017-11-16T10:15:47.116Z,4.90
2017-11-16T10:18:14.639Z,4.67
2017-11-16T10:20:42.075Z,4.70
2017-11-16T10:23:09.496Z,5.10
2017-11-16T10:25:36.927Z,4.40
2017-11-16T10:28:04.356Z,4.57
2017-11-16T10:30:31.783Z,5.80
2017-11-16T10:32:59.975Z,4.50
2017-11-16T10:35:28.176Z,5.23
2017-11-16T10:37:56.376Z,5.20
2017-11-16T10:40:23.806Z,4.30
2017-11-16T10:42:51.298Z,4.70
2017-11-16T10:45:18.759Z,3.67
2017-11-16T10:47:46.220Z,4.53
2017-11-16T10:50:13.651Z,4.10
2017-11-16T10:52:41.088Z,5.17
2017-11-16T10:55:09.322Z,5.73
2017-11-16T10:57:36.774Z,3.90
2017-11-16T11:00:04.211Z,6.07
2017-11-16T11:02:31.630Z,5.30
2017-11-16T11:04:59.940Z,5.10
2017-11-16T11:07:27.854Z,4.63
2017-11-16T11:09:55.316Z,5.23
2017-11-16T11:12:22.779Z,3.93
2017-11-16T11:14:50.235Z,3.87
2017-11-16T11:17:17.654Z,4.00
2017-11-16T11:19:45.871Z,3.17
2017-11-16T11:22:13.340Z,6.53
2017-11-16T11:24:40.813Z,5.47
2017-11-16T11:27:08.239Z,4.20
2017-11-16T11:29:35.732Z,6.17
2017-11-16T11:32:03.182Z,5.47
2017-11-16T11:34:31.159Z,5.30
2017-11-16T11:36:58.627Z,3.60
2017-11-16T11:39:26.056Z,4.43
2017-11-16T11:41:53.539Z,5.50
2017-11-16T11:44:21.003Z,4.97
2017-11-16T11:46:48.430Z,4.97
2017-11-16T11:49:16.646Z,4.90
2017-11-16T11:51:44.072Z,4.90
2017-11-16T11:54:11.566Z,5.83
2017-11-16T11:56:39.019Z,3.93
2017-11-16T11:59:06.446Z,4.40
2017-11-16T12:01:34.663Z,3.77
2017-11-16T12:04:02.083Z,3.90
2017-11-16T12:06:30.285Z,4.90
2017-11-16T12:08:57.694Z,5.03
2017-11-16T12:11:25.218Z,3.00
2017-11-16T12:13:52.686Z,3.20
2017-11-16T12:16:20.127Z,3.47
2017-11-16T12:18:48.524Z,4.20
2017-11-16T12:21:16.087Z,4.00
2017-11-16T12:23:43.564Z,3.83
2017-11-16T12:26:10.983Z,3.67
2017-11-16T12:28:38.402Z,3.90
2017-11-16T12:31:05.839Z,5.73
2017-11-16T12:33:33.263Z,3.30
2017-11-16T12:36:00.760Z,3.80
2017-11-16T12:38:28.187Z,4.60
2017-11-16T12:40:56.383Z,4.40
2017-11-16T12:43:23.818Z,4.10
2017-11-16T12:45:51.371Z,3.23
2017-11-16T12:48:19.573Z,4.07
2017-11-16T12:50:47.777Z,3.53
2017-11-16T12:53:15.240Z,3.20
2017-11-16T12:55:42.671Z,4.60
2017-11-16T12:58:10.160Z,3.93
2017-11-16T13:00:37.588Z,3.37
2017-11-16T13:03:05.775Z,6.00
2017-11-16T13:05:33.262Z,4.80
2017-11-16T13:08:00.746Z,4.07
2017-11-16T13:10:28.168Z,3.63
2017-11-16T13:12:55.683Z,3.90
2017-11-16T13:15:23.207Z,4.37
2017-11-16T13:17:50.639Z,3.77
2017-11-16T13:20:18.827Z,3.83
2017-11-16T13:22:46.275Z,3.30
2017-11-16T13:25:13.694Z,2.93
2017-11-16T13:27:41.128Z,3.97
2017-11-16T13:30:08.591Z,3.67
2017-11-16T13:32:36.058Z,3.70
2017-11-16T13:35:03.473Z,4.80
2017-11-16T13:37:31.688Z,5.50
2017-11-16T13:39:59.125Z,3.50
2017-11-16T13:42:27.307Z,3.70
2017-11-16T13:44:54.792Z,3.40
2017-11-16T13:47:22.224Z,4.47
2017-11-16T13:49:49.646Z,3.80
2017-11-16T13:52:17.182Z,4.00
2017-11-16T13:54:44.636Z,4.50
2017-11-16T13:57:12.081Z,3.77
2017-11-16T13:59:39.558Z,4.20
2017-11-16T14:02:06.983Z,3.67
2017-11-16T14:04:35.175Z,3.53
2017-11-16T14:07:02.656Z,2.93
2017-11-16T14:50:34.051Z,2.13
2017-11-16T14:53:02.357Z,2.67
2017-11-16T14:55:29.814Z,2.20
2017-11-16T14:57:57.223Z,2.77
2017-11-16T15:00:24.643Z,3.30
2017-11-16T15:02:52.067Z,3.40
2017-11-16T15:05:20.266Z,3.33
2017-11-16T15:07:47.683Z,3.83
2017-11-16T15:10:15.107Z,2.73
2017-11-16T15:12:42.542Z,5.67
2017-11-16T15:15:10.027Z,3.13
2017-11-16T15:17:37.487Z,2.13
2017-11-16T15:20:04.951Z,3.57
2017-11-16T15:22:32.375Z,2.50
2017-11-16T15:25:00.559Z,2.93
2017-11-16T15:27:27.987Z,3.27
2017-11-16T15:29:55.412Z,3.73
2017-11-16T15:32:22.836Z,3.70
2017-11-16T15:34:51.047Z,4.60
2017-11-16T15:37:18.475Z,3.80
2017-11-16T15:39:46.687Z,3.03
2017-11-16T15:42:14.147Z,2.60
2017-11-16T15:44:41.567Z,3.90
2017-11-16T15:47:09.759Z,3.30
2017-11-16T15:49:37.243Z,2.40
2017-11-16T15:52:04.666Z,2.87
2017-11-16T15:54:32.897Z,2.57
2017-11-16T15:57:00.346Z,3.83
2017-11-16T15:59:27.769Z,3.63
2017-11-16T16:01:56.088Z,3.60
2017-11-16T16:04:23.503Z,3.33
2017-11-16T16:06:51.691Z,3.80
2017-11-16T16:09:19.875Z,2.50
2017-11-16T16:11:48.068Z,3.60
2017-11-16T16:14:15.542Z,4.20
2017-11-16T16:16:42.986Z,4.03
2017-11-16T16:19:10.462Z,4.67
2017-11-16T16:21:37.938Z,3.50
2017-11-16T16:24:05.363Z,3.10
2017-11-16T16:26:32.854Z,4.03
2017-11-16T16:29:00.283Z,4.77
2017-11-16T16:31:27.708Z,2.87
2017-11-16T16:33:55.130Z,4.70
2017-11-16T16:36:22.551Z,3.43
2017-11-16T16:38:50.747Z,4.10
2017-11-16T16:41:18.167Z,3.80
2017-11-16T16:43:45.595Z,5.13
2017-11-16T16:46:13.055Z,5.10
2017-11-16T16:48:40.519Z,3.60
2017-11-16T16:51:07.947Z,3.33
2017-11-16T16:53:35.372Z,2.80
2017-11-16T16:56:02.794Z,4.33
2017-11-16T16:58:30.255Z,4.10
2017-11-16T17:00:57.747Z,4.40
2017-11-16T17:03:25.286Z,4.20
2017-11-16T17:05:52.703Z,3.87
2017-11-16T17:08:20.891Z,3.80
2017-11-16T17:10:48.311Z,3.33
2017-11-16T17:13:15.749Z,4.70
2017-11-16T17:15:43.208Z,3.57
2017-11-16T17:18:10.756Z,4.90
2017-11-16T17:20:38.357Z,3.53
2017-11-16T17:23:05.776Z,2.77
2017-11-16T17:25:33.194Z,3.37
2017-11-16T17:28:01.391Z,3.43
2017-11-16T17:30:29.618Z,3.67
2017-11-16T17:32:57.051Z,4.57
2017-11-16T17:35:24.625Z,5.90
2017-11-16T17:37:52.795Z,3.70
2017-11-16T17:40:20.266Z,4.07
2017-11-16T17:42:47.695Z,4.97
2017-11-16T17:45:15.911Z,6.47
2017-11-16T17:47:43.402Z,4.20
2017-11-16T17:50:10.849Z,2.87
2017-11-16T17:52:38.292Z,5.03
2017-11-16T17:55:05.776Z,4.10
2017-11-16T17:57:33.218Z,3.17
2017-11-16T18:00:00.679Z,3.03
2017-11-16T18:02:28.108Z,4.37
2017-11-16T18:04:56.316Z,4.13
2017-11-16T18:07:23.900Z,3.97
2017-11-16T18:09:51.526Z,4.27
2017-11-16T18:12:19.011Z,3.30
2017-11-16T18:14:46.445Z,2.80
2017-11-16T18:17:14.111Z,4.77
2017-11-16T18:19:42.300Z,4.33
2017-11-16T18:22:09.730Z,3.47
2017-11-16T18:24:37.955Z,3.67
2017-11-16T18:27:05.375Z,4.50
2017-11-16T18:29:33.610Z,3.30
2017-11-16T18:32:01.043Z,3.67
2017-11-16T18:34:28.491Z,5.17
2017-11-16T18:36:55.978Z,2.73
2017-11-16T18:39:23.450Z,2.77
2017-11-16T18:41:50.910Z,4.40
2017-11-16T18:44:18.319Z,2.67
2017-11-16T18:46:46.548Z,4.33
2017-11-16T18:49:13.959Z,4.00
2017-11-16T18:51:42.173Z,3.97
2017-11-16T18:54:09.610Z,4.00
2017-11-16T18:56:37.783Z,4.13
2017-11-16T18:59:05.211Z,4.10
2017-11-16T19:01:32.634Z,3.20
2017-11-16T19:04:00.059Z,5.63
2017-11-16T19:06:28.250Z,4.63
2017-11-16T19:08:55.787Z,5.03
2017-11-16T19:11:24.380Z,4.23
2017-11-16T19:13:52.570Z,4.67
2017-11-16T19:16:20.874Z,4.63
2017-11-16T19:18:48.354Z,2.50
2017-11-16T19:21:15.806Z,5.40
2017-11-16T19:23:43.378Z,4.40
2017-11-16T19:26:10.853Z,4.10
2017-11-16T19:28:38.278Z,5.23
2017-11-16T19:31:05.736Z,4.93
2017-11-16T19:33:33.211Z,5.00
2017-11-16T19:36:00.635Z,4.70
2017-11-16T19:38:28.835Z,5.70
2017-11-16T19:40:56.349Z,6.70
2017-11-16T19:43:23.790Z,3.60
2017-11-16T19:45:51.212Z,5.97
2017-11-16T19:48:18.659Z,4.90
2017-11-16T19:50:46.149Z,3.60
2017-11-16T19:53:13.571Z,4.20
2017-11-16T19:55:41.792Z,4.90
2017-11-16T19:58:09.221Z,4.80
2017-11-16T20:00:37.462Z,6.13
2017-11-16T20:03:04.879Z,5.30
2017-11-16T20:05:32.379Z,3.63
2017-11-16T20:07:59.799Z,3.30
2017-11-16T20:10:27.275Z,4.47
2017-11-16T20:12:54.703Z,4.83
2017-11-16T20:15:22.926Z,5.17
2017-11-16T20:17:50.378Z,6.10
2017-11-16T20:20:17.830Z,4.97
2017-11-16T20:22:45.326Z,4.93
2017-11-16T20:25:12.789Z,4.00
2017-11-16T20:27:40.227Z,3.13
2017-11-16T20:30:08.219Z,4.00
2017-11-16T20:32:36.496Z,3.70
2017-11-16T20:35:03.937Z,6.30
2017-11-16T20:40:54.845Z,5.53
2017-11-16T20:43:25.664Z,2.87
2017-11-16T20:45:57.117Z,4.87
2017-11-16T20:48:34.070Z,5.50
2017-11-16T20:51:09.924Z,4.50
2017-11-16T20:56:48.052Z,5.17
2017-11-16T20:59:15.468Z,4.50
2017-11-16T21:01:42.893Z,4.50
2017-11-16T21:04:10.372Z,6.47
2017-11-16T21:09:28.907Z,3.83
2017-11-16T21:11:56.370Z,6.97
2017-11-16T21:14:23.856Z,5.70
2017-11-16T21:16:51.415Z,6.43
2017-11-16T21:19:18.850Z,6.50
2017-11-16T21:21:46.307Z,6.00
2017-11-16T21:24:13.751Z,7.10
2017-11-16T21:26:41.259Z,7.23
2017-11-16T21:29:08.707Z,5.67
2017-11-16T21:31:36.368Z,4.73
2017-11-16T21:34:03.844Z,5.27
2017-11-16T21:36:31.299Z,6.03
2017-11-16T21:38:58.720Z,6.80
2017-11-16T21:41:26.210Z,5.00
2017-11-16T21:43:53.666Z,5.50
2017-11-16T21:46:21.239Z,5.53
2017-11-16T21:48:48.705Z,6.90
2017-11-16T21:51:16.154Z,7.10
2017-11-16T21:53:43.584Z,7.23
2017-11-16T21:56:11.905Z,5.03
2017-11-16T21:58:39.367Z,8.07
2017-11-16T22:01:06.800Z,6.90
2017-11-16T22:03:34.218Z,6.60
2017-11-16T22:06:01.743Z,4.43
2017-11-16T22:08:29.170Z,4.93
2017-11-16T22:10:57.422Z,7.00
2017-11-16T22:13:24.847Z,4.10
2017-11-16T22:15:52.295Z,5.50
2017-11-16T22:18:19.719Z,4.40
2017-11-16T22:20:47.918Z,7.53
2017-11-16T22:23:15.343Z,6.20
2017-11-16T22:25:42.867Z,6.07
2017-11-16T22:28:10.286Z,4.97
2017-11-16T22:30:38.479Z,6.07
2017-11-16T22:33:05.899Z,5.60
2017-11-16T22:35:33.435Z,4.90
2017-11-16T22:38:00.877Z,7.17
2017-11-16T22:40:29.079Z,5.50
2017-11-16T22:42:56.535Z,7.00
2017-11-16T22:45:23.955Z,6.17
2017-11-16T22:47:52.143Z,8.30
2017-11-16T22:50:19.623Z,7.00
2017-11-16T22:52:47.070Z,6.83
2017-11-16T22:55:14.499Z,8.90
2017-11-16T22:57:42.736Z,7.03
2017-11-16T23:00:10.225Z,7.13
2017-11-16T23:02:37.656Z,8.90
2017-11-16T23:05:05.131Z,10.40
2017-11-16T23:07:32.579Z,7.07
2017-11-16T23:10:00.051Z,8.50
2017-11-16T23:12:27.465Z,6.37
2017-11-16T23:14:54.963Z,7.90
2017-11-16T23:17:22.422Z,5.93
2017-11-16T23:19:49.883Z,8.10
2017-11-16T23:22:17.357Z,6.77
2017-11-16T23:24:44.802Z,6.80
2017-11-16T23:27:12.236Z,7.63
2017-11-16T23:29:40.431Z,8.60
2017-11-16T23:32:07.863Z,5.53
2017-11-16T23:34:36.087Z,8.87
2017-11-16T23:37:03.514Z,8.07
2017-11-16T23:39:31.007Z,6.60
2017-11-16T23:41:58.558Z,5.77
2017-11-16T23:44:25.979Z,6.53
2017-11-16T23:46:53.501Z,6.13
2017-11-16T23:49:21.044Z,8.50
2017-11-16T23:51:48.459Z,6.87
2017-11-16T23:54:16.073Z,7.30
2017-11-16T23:56:43.451Z,6.03
2017-11-16T23:59:10.907Z,7.07
